Time,TemperatureF,DewpointF,PressureIn,WindDirection,WindDirectionDegrees,WindSpeedMPH,WindSpeedGustMPH,Humidity,HourlyPrecipIn,Conditions,Clouds,dailyrainin,SoftwareType,DateUTC
2013-03-10 00:01:00,50.0,41.0,-100.00,West,280,0.0,0.0,72,-99.99,,,-99.99,,2013-03-10 06:01:00,
2013-03-10 00:11:00,47.0,41.0,-100.00,NW,310,0.0,0.0,79,-99.99,,,-99.99,,2013-03-10 06:11:00,
2013-03-10 00:22:00,46.0,42.0,-100.00,North,0,0.0,0.0,83,-99.99,,,-99.99,,2013-03-10 06:22:00,
2013-03-10 00:32:00,46.0,42.0,-100.00,North,0,0.0,0.0,83,-99.99,,,-99.99,,2013-03-10 06:32:00,
2013-03-10 00:42:00,46.0,42.0,-100.00,West,260,0.0,0.0,87,-99.99,,,-99.99,,2013-03-10 06:42:00,
2013-03-10 00:52:00,45.0,43.0,-100.00,NW,310,0.0,0.0,90,-99.99,,,-99.99,,2013-03-10 06:52:00,
2013-03-10 01:02:00,45.0,43.0,-100.00,NW,310,0.0,0.0,90,-99.99,,,-99.99,,2013-03-10 07:02:00,
2013-03-10 01:11:00,45.0,43.0,-100.00,ESE,115,0.0,0.0,94,-99.99,,,-99.99,,2013-03-10 07:11:00,
2013-03-10 01:21:00,44.0,43.0,-100.00,ENE,70,0.0,0.0,98,-99.99,,,-99.99,,2013-03-10 07:21:00,
2013-03-10 01:32:00,44.0,43.0,-100.00,ENE,70,0.0,0.0,98,-99.99,,,-99.99,,2013-03-10 07:32:00,
2013-03-10 01:42:00,44.0,43.0,-100.00,ENE,75,0.0,0.0,99,-99.99,,,-99.99,,2013-03-10 07:42:00,
2013-03-10 01:52:00,43.0,39.0,-100.00,ENE,65,0.0,0.0,83,-99.99,,,-99.99,,2013-03-10 07:52:00,
2013-03-10 03:01:00,43.0,39.0,-100.00,ENE,65,0.0,0.0,83,-99.99,,,-99.99,,2013-03-10 08:01:00,
2013-03-10 03:11:00,43.0,43.0,-100.00,SE,135,0.0,0.0,99,-99.99,,,-99.99,,2013-03-10 08:11:00,
2013-03-10 03:21:00,43.0,43.0,-100.00,NW,325,0.0,0.0,99,-99.99,,,-99.99,,2013-03-10 08:21:00,
2013-03-10 03:31:00,43.0,43.0,-100.00,NW,325,0.0,0.0,99,-99.99,,,-99.99,,2013-03-10 08:31:00,
2013-03-10 03:42:00,43.0,43.0,-100.00,SE,130,0.0,0.0,99,-99.99,,,-99.99,,2013-03-10 08:42:00,
2013-03-10 03:52:00,43.0,43.0,-100.00,ESE,120,0.0,0.0,99,-99.99,,,-99.99,,2013-03-10 08:52:00,
2013-03-10 04:01:00,43.0,43.0,-100.00,ESE,120,0.0,0.0,99,-99.99,,,-99.99,,2013-03-10 09:01:00,
2013-03-10 04:11:00,43.0,43.0,-100.00,East,90,0.0,0.0,99,-99.99,,,-99.99,,2013-03-10 09:11:00,
2013-03-10 04:21:00,43.0,43.0,-100.00,ENE,65,0.0,0.0,99,-99.99,,,-99.99,,2013-03-10 09:21:00,
2013-03-10 04:31:00,43.0,43.0,-100.00,ENE,65,0.0,0.0,99,-99.99,,,-99.99,,2013-03-10 09:31:00,
2013-03-10 04:41:00,43.0,43.0,-100.00,ENE,65,0.0,0.0,99,-99.99,,,-99.99,,2013-03-10 09:41:00,
2013-03-10 04:52:00,43.0,43.0,-100.00,NE,50,0.0,0.0,99,-99.99,,,-99.99,,2013-03-10 09:52:00,
2013-03-10 05:01:00,43.0,43.0,-100.00,NE,50,0.0,0.0,99,-99.99,,,-99.99,,2013-03-10 10:01:00,
2013-03-10 05:11:00,43.0,43.0,-100.00,East,100,0.0,0.0,99,-99.99,,,-99.99,,2013-03-10 10:11:00,
2013-03-10 05:21:00,43.0,43.0,-100.00,East,100,0.0,0.0,99,-99.99,,,-99.99,,2013-03-10 10:21:00,
2013-03-10 05:32:00,44.0,43.0,-100.00,SSE,165,0.0,0.0,99,-99.99,,,-99.99,,2013-03-10 10:32:00,
2013-03-10 05:41:00,44.0,43.0,-100.00,SSE,165,0.0,0.0,99,-99.99,,,-99.99,,2013-03-10 10:41:00,
2013-03-10 05:52:00,45.0,44.0,-100.00,SE,125,0.0,0.0,99,-99.99,,,-99.99,,2013-03-10 10:52:00,
2013-03-10 06:01:00,45.0,44.0,-100.00,SE,125,0.0,0.0,99,-99.99,,,-99.99,,2013-03-10 11:01:00,
2013-03-10 06:12:00,45.0,45.0,-100.00,South,175,0.0,0.0,99,-99.99,,,-99.99,,2013-03-10 11:12:00,
2013-03-10 06:21:00,47.0,47.0,-100.00,South,170,0.0,0.0,99,-99.99,,,-99.99,,2013-03-10 11:21:00,
2013-03-10 06:32:00,47.0,47.0,-100.00,South,170,0.0,0.0,99,-99.99,,,-99.99,,2013-03-10 11:32:00,
2013-03-10 06:42:00,49.0,48.0,-100.00,South,185,0.0,0.0,99,-99.99,,,-99.99,,2013-03-10 11:42:00,
2013-03-10 06:52:00,49.0,49.0,-100.00,SE,145,0.0,0.0,99,-99.99,,,-99.99,,2013-03-10 11:52:00,
2013-03-10 07:01:00,49.0,49.0,-100.00,SE,145,0.0,0.0,99,-99.99,,,-99.99,,2013-03-10 12:01:00,
2013-03-10 07:11:00,49.0,49.0,-100.00,SE,130,0.0,0.0,99,-99.99,,,-99.99,,2013-03-10 12:11:00,
2013-03-10 07:21:00,49.0,49.0,-100.00,South,180,0.0,0.0,99,-99.99,,,-99.99,,2013-03-10 12:21:00,
2013-03-10 07:31:00,49.0,49.0,-100.00,South,180,0.0,0.0,99,-99.99,,,-99.99,,2013-03-10 12:31:00,
2013-03-10 07:42:00,48.0,48.0,-100.00,South,180,0.0,0.0,99,-99.99,,,-99.99,,2013-03-10 12:42:00,
2013-03-10 07:52:00,48.0,48.0,-100.00,South,180,0.0,0.0,99,-99.99,,,-99.99,,2013-03-10 12:52:00,
2013-03-10 08:01:00,48.0,48.0,-100.00,South,180,0.0,0.0,99,-99.99,,,-99.99,,2013-03-10 13:01:00,
2013-03-10 08:11:00,48.0,48.0,-100.00,SSE,165,0.0,0.0,99,-99.99,,,-99.99,,2013-03-10 13:11:00,
2013-03-10 08:21:00,48.0,48.0,-100.00,South,170,0.0,0.0,99,-99.99,,,-99.99,,2013-03-10 13:21:00,
2013-03-10 08:31:00,48.0,48.0,-100.00,South,170,0.0,0.0,99,-99.99,,,-99.99,,2013-03-10 13:31:00,
2013-03-10 08:41:00,48.0,48.0,-100.00,South,175,0.0,0.0,99,-99.99,,,-99.99,,2013-03-10 13:41:00,
2013-03-10 08:52:00,48.0,48.0,-100.00,SSE,160,0.0,0.0,99,-99.99,,,-99.99,,2013-03-10 13:52:00,
2013-03-10 09:01:00,48.0,48.0,-100.00,SSE,160,0.0,0.0,99,-99.99,,,-99.99,,2013-03-10 14:01:00,
2013-03-10 09:11:00,48.0,48.0,-100.00,SSE,165,0.0,0.0,99,-99.99,,,-99.99,,2013-03-10 14:11:00,
2013-03-10 09:21:00,48.0,48.0,-100.00,SE,145,0.0,0.0,99,-99.99,,,-99.99,,2013-03-10 14:21:00,
2013-03-10 09:32:00,48.0,48.0,-100.00,SE,145,0.0,0.0,99,-99.99,,,-99.99,,2013-03-10 14:32:00,
2013-03-10 09:41:00,48.0,48.0,-100.00,South,175,0.0,0.0,99,-99.99,,,-99.99,,2013-03-10 14:41:00,
2013-03-10 09:52:00,48.0,48.0,-100.00,SSE,150,0.0,0.0,99,-99.99,,,-99.99,,2013-03-10 14:52:00,
2013-03-10 10:01:00,48.0,48.0,-100.00,SSE,150,0.0,0.0,99,-99.99,,,-99.99,,2013-03-10 15:01:00,
2013-03-10 10:11:00,48.0,48.0,-100.00,South,180,0.0,0.0,99,-99.99,,,-99.99,,2013-03-10 15:11:00,
2013-03-10 10:21:00,48.0,48.0,-100.00,South,170,0.0,0.0,99,-99.99,,,-99.99,,2013-03-10 15:21:00,
2013-03-10 10:30:00,49.0,49.0,-100.00,SE,130,0.0,0.0,99,-99.99,,,-99.99,,2013-03-10 15:30:00,
2013-03-10 10:32:00,48.0,48.0,-100.00,South,170,0.0,0.0,99,-99.99,,,-99.99,,2013-03-10 15:32:00,
2013-03-10 10:42:00,48.0,48.0,-100.00,SSE,160,0.0,0.0,99,-99.99,,,-99.99,,2013-03-10 15:42:00,
2013-03-10 10:52:00,49.0,48.0,-100.00,South,170,0.0,0.0,99,-99.99,,,-99.99,,2013-03-10 15:52:00,
2013-03-10 11:01:00,49.0,48.0,-100.00,South,170,0.0,0.0,99,-99.99,,,-99.99,,2013-03-10 16:01:00,
2013-03-10 11:12:00,49.0,49.0,-100.00,SE,130,0.0,0.0,99,-99.99,,,-99.99,,2013-03-10 16:12:00,
2013-03-10 11:21:00,49.0,49.0,-100.00,SE,130,0.0,0.0,99,-99.99,,,-99.99,,2013-03-10 16:21:00,
2013-03-10 12:51:00,50.0,50.0,-100.00,West,275,0.0,0.0,99,-99.99,,,-99.99,,2013-03-10 17:51:00,
2013-03-10 13:01:00,50.0,50.0,-100.00,West,275,0.0,0.0,99,-99.99,,,-99.99,,2013-03-10 18:01:00,
2013-03-10 13:11:00,50.0,50.0,-100.00,SSE,150,0.0,0.0,99,-99.99,,,-99.99,,2013-03-10 18:11:00,
2013-03-10 13:22:00,50.0,50.0,-100.00,SSE,160,0.0,0.0,99,-99.99,,,-99.99,,2013-03-10 18:22:00,
2013-03-10 13:32:00,50.0,50.0,-100.00,SSE,160,0.0,0.0,99,-99.99,,,-99.99,,2013-03-10 18:32:00,
2013-03-10 13:42:00,50.0,50.0,-100.00,SSW,195,0.0,0.0,99,-99.99,,,-99.99,,2013-03-10 18:42:00,
2013-03-10 13:52:00,50.0,50.0,-100.00,SSE,165,0.0,0.0,99,-99.99,,,-99.99,,2013-03-10 18:52:00,
2013-03-10 14:01:00,50.0,50.0,-100.00,SSE,165,0.0,0.0,99,-99.99,,,-99.99,,2013-03-10 19:01:00,
2013-03-10 14:11:00,50.0,50.0,-100.00,SE,130,0.0,0.0,99,-99.99,,,-99.99,,2013-03-10 19:11:00,
2013-03-10 14:21:00,51.0,51.0,-100.00,East,100,0.0,0.0,99,-99.99,,,-99.99,,2013-03-10 19:21:00,
2013-03-10 14:32:00,51.0,51.0,-100.00,East,100,0.0,0.0,99,-99.99,,,-99.99,,2013-03-10 19:32:00,
2013-03-10 14:42:00,51.0,51.0,-100.00,SW,220,0.0,0.0,99,-99.99,,,-99.99,,2013-03-10 19:42:00,
2013-03-10 14:53:00,51.0,50.0,-100.00,WSW,250,0.0,0.0,99,-99.99,,,-99.99,,2013-03-10 19:53:00,
2013-03-10 15:02:00,51.0,50.0,-100.00,WSW,250,0.0,0.0,99,-99.99,,,-99.99,,2013-03-10 20:02:00,
2013-03-10 15:12:00,50.0,50.0,-100.00,West,270,0.0,0.0,99,-99.99,,,-99.99,,2013-03-10 20:12:00,
2013-03-10 15:22:00,50.0,50.0,-100.00,SW,215,0.0,0.0,99,-99.99,,,-99.99,,2013-03-10 20:22:00,
2013-03-10 15:32:00,50.0,50.0,-100.00,SW,215,0.0,0.0,99,-99.99,,,-99.99,,2013-03-10 20:32:00,
2013-03-10 15:42:00,50.0,49.0,-100.00,SSW,195,0.0,0.0,99,-99.99,,,-99.99,,2013-03-10 20:42:00,
2013-03-10 15:53:00,50.0,50.0,-100.00,East,100,0.0,0.0,99,-99.99,,,-99.99,,2013-03-10 20:53:00,
2013-03-10 16:02:00,50.0,50.0,-100.00,East,100,0.0,0.0,99,-99.99,,,-99.99,,2013-03-10 21:02:00,
2013-03-10 16:12:00,50.0,50.0,-100.00,East,100,0.0,0.0,99,-99.99,,,-99.99,,2013-03-10 21:12:00,
2013-03-10 16:23:00,50.0,50.0,-100.00,East,100,0.0,0.0,99,-99.99,,,-99.99,,2013-03-10 21:23:00,
2013-03-10 16:32:00,50.0,50.0,-100.00,East,100,0.0,0.0,99,-99.99,,,-99.99,,2013-03-10 21:32:00,
2013-03-10 16:42:00,51.0,50.0,-100.00,SSE,155,0.0,0.0,99,-99.99,,,-99.99,,2013-03-10 21:42:00,
2013-03-10 16:53:00,51.0,50.0,-100.00,South,175,0.0,0.0,99,-99.99,,,-99.99,,2013-03-10 21:53:00,
2013-03-10 17:02:00,51.0,50.0,-100.00,South,175,0.0,0.0,99,-99.99,,,-99.99,,2013-03-10 22:02:00,
2013-03-10 17:12:00,51.0,50.0,-100.00,SSW,205,0.0,0.0,99,-99.99,,,-99.99,,2013-03-10 22:12:00,
2013-03-10 17:22:00,50.0,50.0,-100.00,SSW,205,0.0,0.0,99,-99.99,,,-99.99,,2013-03-10 22:22:00,
2013-03-10 17:32:00,50.0,50.0,-100.00,SSW,205,0.0,0.0,99,-99.99,,,-99.99,,2013-03-10 22:32:00,
2013-03-10 17:43:00,50.0,49.0,-100.00,West,270,0.0,0.0,99,-99.99,,,-99.99,,2013-03-10 22:43:00,
2013-03-10 17:53:00,48.0,48.0,-100.00,SW,235,0.0,0.0,99,-99.99,,,-99.99,,2013-03-10 22:53:00,
2013-03-10 18:03:00,48.0,48.0,-100.00,SW,235,0.0,0.0,99,-99.99,,,-99.99,,2013-03-10 23:03:00,
2013-03-10 18:12:00,49.0,48.0,-100.00,WSW,245,0.0,0.0,99,-99.99,,,-99.99,,2013-03-10 23:12:00,
2013-03-10 18:23:00,48.0,48.0,-100.00,WSW,255,0.0,0.0,99,-99.99,,,-99.99,,2013-03-10 23:23:00,
2013-03-10 18:32:00,48.0,48.0,-100.00,West,265,0.0,0.0,99,-99.99,,,-99.99,,2013-03-10 23:32:00,
2013-03-10 18:42:00,48.0,48.0,-100.00,West,265,0.0,0.0,99,-99.99,,,-99.99,,2013-03-10 23:42:00,
2013-03-10 18:52:00,48.0,48.0,-100.00,West,260,0.0,0.0,99,-99.99,,,-99.99,,2013-03-10 23:52:00,
2013-03-10 19:02:00,48.0,48.0,-100.00,West,260,0.0,0.0,99,-99.99,,,-99.99,,2013-03-11 00:02:00,
2013-03-10 19:12:00,48.0,47.0,-100.00,WNW,285,0.0,0.0,99,-99.99,,,-99.99,,2013-03-11 00:12:00,
2013-03-10 19:23:00,47.0,47.0,-100.00,West,275,0.0,0.0,99,-99.99,,,-99.99,,2013-03-11 00:23:00,
2013-03-10 19:33:00,47.0,47.0,-100.00,West,275,0.0,0.0,99,-99.99,,,-99.99,,2013-03-11 00:33:00,
2013-03-10 19:43:00,47.0,46.0,-100.00,West,275,0.0,0.0,99,-99.99,,,-99.99,,2013-03-11 00:43:00,
2013-03-10 19:53:00,46.0,46.0,-100.00,West,270,0.0,0.0,99,-99.99,,,-99.99,,2013-03-11 00:53:00,
2013-03-10 20:02:00,46.0,46.0,-100.00,West,270,0.0,0.0,99,-99.99,,,-99.99,,2013-03-11 01:02:00,
2013-03-10 20:13:00,46.0,46.0,-100.00,West,270,0.0,0.0,99,-99.99,,,-99.99,,2013-03-11 01:13:00,
2013-03-10 20:23:00,46.0,46.0,-100.00,West,265,0.0,0.0,99,-99.99,,,-99.99,,2013-03-11 01:23:00,
2013-03-10 20:32:00,46.0,46.0,-100.00,West,265,0.0,0.0,99,-99.99,,,-99.99,,2013-03-11 01:32:00,
2013-03-10 20:42:00,46.0,46.0,-100.00,West,275,0.0,0.0,99,-99.99,,,-99.99,,2013-03-11 01:42:00,
2013-03-10 20:53:00,46.0,46.0,-100.00,West,265,0.0,0.0,99,-99.99,,,-99.99,,2013-03-11 01:53:00,
2013-03-10 21:02:00,46.0,46.0,-100.00,West,265,0.0,0.0,99,-99.99,,,-99.99,,2013-03-11 02:02:00,
2013-03-10 21:12:00,46.0,46.0,-100.00,West,260,0.0,0.0,99,-99.99,,,-99.99,,2013-03-11 02:12:00,
2013-03-10 21:22:00,46.0,46.0,-100.00,West,270,0.0,0.0,99,-99.99,,,-99.99,,2013-03-11 02:22:00,
2013-03-10 21:32:00,46.0,46.0,-100.00,West,270,0.0,0.0,99,-99.99,,,-99.99,,2013-03-11 02:32:00,
2013-03-10 21:42:00,46.0,45.0,-100.00,West,270,0.0,0.0,99,-99.99,,,-99.99,,2013-03-11 02:42:00,
2013-03-10 21:53:00,45.0,45.0,-100.00,West,265,0.0,0.0,99,-99.99,,,-99.99,,2013-03-11 02:53:00,
2013-03-10 22:02:00,45.0,45.0,-100.00,West,265,0.0,0.0,99,-99.99,,,-99.99,,2013-03-11 03:02:00,
2013-03-10 22:12:00,46.0,46.0,-100.00,WSW,240,0.0,0.0,99,-99.99,,,-99.99,,2013-03-11 03:12:00,
2013-03-10 22:22:00,46.0,45.0,-100.00,West,265,0.0,0.0,99,-99.99,,,-99.99,,2013-03-11 03:22:00,
2013-03-10 22:32:00,46.0,45.0,-100.00,West,265,0.0,0.0,99,-99.99,,,-99.99,,2013-03-11 03:32:00,
2013-03-10 22:42:00,46.0,46.0,-100.00,SW,235,0.0,0.0,99,-99.99,,,-99.99,,2013-03-11 03:42:00,
2013-03-10 22:53:00,45.0,45.0,-100.00,SSW,205,0.0,0.0,99,-99.99,,,-99.99,,2013-03-11 03:53:00,
2013-03-10 23:02:00,45.0,45.0,-100.00,SSW,205,0.0,0.0,99,-99.99,,,-99.99,,2013-03-11 04:02:00,
2013-03-10 23:12:00,45.0,45.0,-100.00,SW,230,0.0,0.0,99,-99.99,,,-99.99,,2013-03-11 04:12:00,
2013-03-10 23:22:00,45.0,45.0,-100.00,WSW,245,0.0,0.0,99,-99.99,,,-99.99,,2013-03-11 04:22:00,
2013-03-10 23:32:00,44.0,44.0,-100.00,SW,230,0.0,0.0,99,-99.99,,,-99.99,,2013-03-11 04:32:00,
2013-03-10 23:42:00,44.0,44.0,-100.00,SW,230,0.0,0.0,99,-99.99,,,-99.99,,2013-03-11 04:42:00,
2013-03-10 23:53:00,43.0,43.0,-100.00,WSW,245,0.0,0.0,99,-99.99,,,-99.99,,2013-03-11 04:53:00,